Time;durP1;ratioP1;P1;durP2;ratioP2;P2;SDS_P1;SDS_P2;PMS_P1;PMS_P2;Temp;Humidity;BMP_temperature;BMP_pressure;BME280_temperature;BME280_humidity;BME280_pressure;Samples;Min_cycle;Max_cycle;Signal;HPM_P1;HPM_P2
2022/07/28 00:02:18;;;;;;;2.40;1.17;;;18.00;85.60;;;;;;5073460;28;20428;-77
2022/07/28 00:04:44;;;;;;;2.10;1.20;;;18.00;85.90;;;;;;5076619;28;20914;-76
2022/07/28 00:07:10;;;;;;;4.10;1.20;;;17.90;86.20;;;;;;5092223;28;20184;-77
2022/07/28 00:09:36;;;;;;;2.90;1.17;;;17.90;86.90;;;;;;5086598;28;20718;-77
2022/07/28 00:12:02;;;;;;;4.77;1.87;;;17.80;88.10;;;;;;5080814;28;20529;-76
2022/07/28 00:14:28;;;;;;;2.53;1.10;;;17.80;88.50;;;;;;5082136;28;20209;-76
2022/07/28 00:16:54;;;;;;;2.83;1.20;;;17.70;89.30;;;;;;5077548;28;20572;-76
2022/07/28 00:19:19;;;;;;;2.87;1.20;;;17.60;89.80;;;;;;5074637;28;20268;-77
2022/07/28 00:21:45;;;;;;;2.47;1.20;;;17.60;90.00;;;;;;5069717;28;20260;-77
2022/07/28 00:24:11;;;;;;;3.13;1.23;;;17.60;90.00;;;;;;5091398;28;20192;-76
2022/07/28 00:26:36;;;;;;;2.60;1.30;;;17.50;89.70;;;;;;5079707;28;20201;-77
2022/07/28 00:29:03;;;;;;;3.20;1.33;;;17.50;88.90;;;;;;5074427;28;20180;-76
2022/07/28 00:31:28;;;;;;;2.03;0.90;;;17.50;87.90;;;;;;5072931;28;20262;-76
2022/07/28 00:33:54;;;;;;;2.30;1.30;;;17.50;89.30;;;;;;5074854;28;20491;-76
2022/07/28 00:36:20;;;;;;;6.50;1.40;;;17.40;89.20;;;;;;5084350;28;20189;-77
2022/07/28 00:38:45;;;;;;;3.57;1.07;;;17.40;87.60;;;;;;5073631;28;20181;-77
2022/07/28 00:41:11;;;;;;;2.80;1.13;;;17.30;87.50;;;;;;5073246;28;20252;-76
2022/07/28 00:43:37;;;;;;;2.47;1.33;;;17.30;87.80;;;;;;5076160;28;20183;-76
2022/07/28 00:46:03;;;;;;;3.13;1.10;;;17.20;88.30;;;;;;5083784;28;20427;-76
2022/07/28 00:48:29;;;;;;;6.47;1.40;;;17.20;88.00;;;;;;5075929;28;20189;-77
2022/07/28 00:50:55;;;;;;;3.00;1.30;;;17.10;89.30;;;;;;5090667;28;20472;-76
2022/07/28 00:53:22;;;;;;;2.30;1.27;;;17.00;90.00;;;;;;5078286;28;20222;-76
2022/07/28 00:55:48;;;;;;;2.13;0.97;;;17.00;90.40;;;;;;5081449;28;20172;-76
2022/07/28 00:58:14;;;;;;;4.80;1.63;;;16.90;90.40;;;;;;5081900;28;20753;-77
2022/07/28 01:00:40;;;;;;;6.97;1.43;;;16.80;90.50;;;;;;5087018;28;20418;-77
2022/07/28 01:03:06;;;;;;;2.73;1.03;;;16.70;90.50;;;;;;5073331;28;20986;-77
2022/07/28 01:06:03;;;;;;;5.30;1.33;;;16.60;90.50;;;;;;5082079;28;20627;-76
2022/07/28 01:08:36;;;;;;;2.87;1.03;;;16.60;90.60;;;;;;5075044;28;20432;-76
2022/07/28 01:11:13;;;;;;;3.43;1.30;;;16.50;90.80;;;;;;5084627;28;20420;-74
2022/07/28 01:13:59;;;;;;;4.00;1.80;;;16.50;91.20;;;;;;5082512;28;20989;-74
2022/07/28 01:16:26;;;;;;;11.80;1.53;;;16.30;91.60;;;;;;5062060;28;20438;-74
2022/07/28 01:19:08;;;;;;;6.03;1.67;;;16.30;92.10;;;;;;5079308;28;20419;-74
2022/07/28 01:21:36;;;;;;;3.20;1.47;;;16.10;92.40;;;;;;5072664;28;20418;-74
2022/07/28 01:24:26;;;;;;;3.37;1.70;;;16.10;92.60;;;;;;5072901;28;20435;-74
2022/07/28 01:27:09;;;;;;;2.60;1.50;;;16.00;92.80;;;;;;5080105;28;20424;-74
2022/07/28 01:30:03;;;;;;;3.50;1.20;;;15.90;92.70;;;;;;5081146;28;20429;-74
2022/07/28 01:32:43;;;;;;;3.17;1.20;;;15.80;92.70;;;;;;5064404;28;20901;-74
2022/07/28 01:35:25;;;;;;;12.13;2.30;;;15.80;92.90;;;;;;5058253;28;20801;-74
2022/07/28 01:37:56;;;;;;;2.70;1.10;;;15.80;93.30;;;;;;5078782;28;20430;-74
2022/07/28 01:40:26;;;;;;;3.13;1.70;;;15.80;93.10;;;;;;5072722;28;20951;-74
2022/07/28 01:42:57;;;;;;;2.50;1.40;;;15.80;93.40;;;;;;5084235;28;20419;-74
2022/07/28 01:45:25;;;;;;;5.07;1.87;;;15.70;93.40;;;;;;5077867;28;20416;-74
2022/07/28 01:47:53;;;;;;;3.00;1.30;;;15.70;93.60;;;;;;5079182;28;20418;-74
2022/07/28 01:50:21;;;;;;;2.53;1.50;;;15.70;93.50;;;;;;5077798;28;20423;-74
2022/07/28 01:52:50;;;;;;;4.03;1.50;;;15.60;93.70;;;;;;5073106;28;20989;-74
2022/07/28 01:55:21;;;;;;;4.30;1.90;;;15.60;93.70;;;;;;5076739;28;20455;-74
2022/07/28 01:57:49;;;;;;;3.73;1.93;;;15.50;93.90;;;;;;5072007;28;20419;-74
2022/07/28 02:00:16;;;;;;;2.40;1.13;;;15.40;94.00;;;;;;5078611;28;20430;-74
2022/07/28 02:02:44;;;;;;;3.10;1.50;;;15.40;94.20;;;;;;5082231;28;20526;-74
2022/07/28 02:05:13;;;;;;;2.73;1.60;;;15.40;94.30;;;;;;5075573;28;20453;-73
2022/07/28 02:07:42;;;;;;;3.53;1.40;;;15.30;94.30;;;;;;5072470;28;20441;-74
2022/07/28 02:10:10;;;;;;;7.90;1.90;;;15.20;94.50;;;;;;5080077;28;20481;-74
2022/07/28 02:12:38;;;;;;;4.03;1.60;;;15.20;94.30;;;;;;5081993;28;20932;-74
2022/07/28 02:15:10;;;;;;;4.90;1.90;;;15.10;94.40;;;;;;5078106;28;20546;-74
2022/07/28 02:17:37;;;;;;;2.97;1.60;;;15.20;94.70;;;;;;5059621;28;20511;-74
2022/07/28 02:20:05;;;;;;;4.93;2.00;;;15.10;94.70;;;;;;5078637;28;20421;-74
2022/07/28 02:22:32;;;;;;;2.93;1.60;;;15.10;94.90;;;;;;5078286;28;20419;-74
2022/07/28 02:24:58;;;;;;;4.00;1.80;;;15.10;95.10;;;;;;5072255;28;20918;-74
2022/07/28 02:27:35;;;;;;;3.77;1.80;;;15.10;95.30;;;;;;5080851;28;20435;-74
2022/07/28 02:30:21;;;;;;;4.03;1.77;;;15.10;95.20;;;;;;5073909;28;20184;-74
2022/07/28 02:32:51;;;;;;;2.67;1.73;;;15.00;95.40;;;;;;5087959;28;20462;-74
2022/07/28 02:35:41;;;;;;;4.60;1.43;;;15.00;95.60;;;;;;5082692;28;20453;-74
2022/07/28 02:38:12;;;;;;;3.57;1.60;;;14.90;95.70;;;;;;5077609;28;20446;-74
2022/07/28 02:40:39;;;;;;;9.00;1.70;;;14.90;95.80;;;;;;5069941;28;20415;-74
2022/07/28 02:43:11;;;;;;;5.27;1.60;;;14.90;95.90;;;;;;5080584;28;21266;-74
2022/07/28 02:45:41;;;;;;;3.00;1.60;;;14.90;96.00;;;;;;5076196;28;20522;-74
2022/07/28 02:48:11;;;;;;;2.63;1.20;;;14.90;95.60;;;;;;5082965;28;20424;-74
2022/07/28 02:50:39;;;;;;;2.93;1.67;;;14.90;95.50;;;;;;5081105;28;20418;-74
2022/07/28 02:53:06;;;;;;;3.47;1.70;;;14.80;95.50;;;;;;5078008;28;20881;-74
2022/07/28 02:55:33;;;;;;;4.77;1.63;;;14.80;95.90;;;;;;5086798;28;20423;-74
2022/07/28 02:58:00;;;;;;;4.13;1.57;;;14.80;96.10;;;;;;5080325;28;20468;-73
2022/07/28 03:00:27;;;;;;;2.83;1.43;;;14.70;96.50;;;;;;5072468;28;20420;-74
2022/07/28 03:02:55;;;;;;;3.60;1.30;;;14.70;96.50;;;;;;5071575;28;20518;-74
2022/07/28 03:05:21;;;;;;;2.87;1.43;;;14.70;96.30;;;;;;5080942;28;20427;-74
2022/07/28 03:07:51;;;;;;;3.77;1.70;;;14.70;96.30;;;;;;5076852;28;20463;-74
2022/07/28 03:10:22;;;;;;;4.30;1.60;;;14.70;96.00;;;;;;5079156;28;20477;-74
2022/07/28 03:12:47;;;;;;;3.97;1.60;;;14.70;96.30;;;;;;5061694;28;20523;-74
2022/07/28 03:15:14;;;;;;;4.13;1.83;;;14.60;96.30;;;;;;5083938;28;20501;-74
2022/07/28 03:17:40;;;;;;;2.50;1.40;;;14.70;96.20;;;;;;5071705;28;20541;-74
2022/07/28 03:20:06;;;;;;;4.30;1.07;;;14.60;96.00;;;;;;5071855;28;20426;-74
2022/07/28 03:22:32;;;;;;;3.20;1.60;;;14.60;95.90;;;;;;5076206;28;20425;-74
2022/07/28 03:24:59;;;;;;;2.70;1.70;;;14.60;95.90;;;;;;5078178;28;20414;-74
2022/07/28 03:27:33;;;;;;;2.10;1.13;;;14.50;96.00;;;;;;5077202;28;21222;-74
2022/07/28 03:30:06;;;;;;;12.87;2.13;;;14.50;95.90;;;;;;5078814;28;20472;-74
2022/07/28 03:32:36;;;;;;;2.97;1.37;;;14.50;96.10;;;;;;5084081;28;20444;-74
2022/07/28 03:35:01;;;;;;;5.30;1.47;;;14.40;96.10;;;;;;5074816;28;20500;-74
2022/07/28 03:37:33;;;;;;;4.63;1.90;;;14.30;96.30;;;;;;5075731;28;20773;-74
2022/07/28 03:40:00;;;;;;;2.53;1.13;;;14.30;96.50;;;;;;5078325;28;20637;-74
2022/07/28 03:42:27;;;;;;;4.73;2.07;;;14.30;96.50;;;;;;5078657;28;20829;-74
2022/07/28 03:44:53;;;;;;;3.37;1.53;;;14.20;96.20;;;;;;5087247;28;20919;-74
2022/07/28 03:47:23;;;;;;;4.13;1.40;;;14.20;96.50;;;;;;5089377;28;20425;-74
2022/07/28 03:49:49;;;;;;;2.43;1.10;;;14.20;96.80;;;;;;5086088;28;20427;-74
2022/07/28 03:52:16;;;;;;;9.13;1.87;;;14.10;96.80;;;;;;5082637;28;20429;-74
2022/07/28 03:54:42;;;;;;;4.13;1.57;;;14.10;96.50;;;;;;5074425;28;20205;-74
2022/07/28 03:57:07;;;;;;;2.43;1.40;;;14.10;96.70;;;;;;5079939;28;20415;-74
2022/07/28 03:59:33;;;;;;;3.67;1.70;;;14.10;96.70;;;;;;5084242;28;20180;-74
2022/07/28 04:01:59;;;;;;;6.43;1.63;;;14.10;96.30;;;;;;5078209;28;20173;-73
2022/07/28 04:04:24;;;;;;;2.87;1.60;;;14.20;96.10;;;;;;5084836;28;20260;-73
2022/07/28 04:06:50;;;;;;;3.90;1.40;;;14.20;95.70;;;;;;5089028;28;20211;-73
2022/07/28 04:09:16;;;;;;;5.27;1.30;;;14.20;95.40;;;;;;5077817;28;20181;-74
2022/07/28 04:11:42;;;;;;;7.10;1.53;;;14.20;95.70;;;;;;5075869;28;20185;-74
2022/07/28 04:14:08;;;;;;;1.73;0.93;;;14.20;95.40;;;;;;5083224;28;20459;-74
2022/07/28 04:16:34;;;;;;;7.27;1.67;;;14.30;95.40;;;;;;5076866;28;20201;-74
2022/07/28 04:18:59;;;;;;;5.80;1.30;;;14.30;95.20;;;;;;5083608;28;20197;-74
2022/07/28 04:21:25;;;;;;;3.93;1.63;;;14.30;95.10;;;;;;5079779;28;20185;-74
2022/07/28 04:23:51;;;;;;;3.23;1.33;;;14.30;94.90;;;;;;5077939;28;20185;-74
2022/07/28 04:26:17;;;;;;;5.53;1.00;;;14.30;94.60;;;;;;5079004;28;20191;-74
2022/07/28 04:28:44;;;;;;;2.67;1.10;;;14.40;94.90;;;;;;5077400;28;20177;-74
2022/07/28 04:31:09;;;;;;;3.70;1.50;;;14.40;94.70;;;;;;5075718;28;20431;-74
2022/07/28 04:33:35;;;;;;;3.53;1.83;;;14.40;94.60;;;;;;5076871;28;20465;-74
2022/07/28 04:36:01;;;;;;;11.77;2.47;;;14.50;94.40;;;;;;5087393;28;20173;-74
2022/07/28 04:38:27;;;;;;;2.60;1.13;;;14.50;94.60;;;;;;5073801;28;20208;-74
2022/07/28 04:40:53;;;;;;;4.97;1.50;;;14.50;94.00;;;;;;5077875;28;20234;-74
2022/07/28 04:43:19;;;;;;;4.87;1.10;;;14.50;94.00;;;;;;5077187;28;20501;-74
2022/07/28 04:45:47;;;;;;;4.17;1.20;;;14.50;94.10;;;;;;5077303;28;20414;-74
2022/07/28 04:48:13;;;;;;;2.23;1.20;;;14.60;94.20;;;;;;5075009;28;20883;-74
2022/07/28 04:50:40;;;;;;;3.57;1.67;;;14.60;94.40;;;;;;5076117;28;20496;-74
2022/07/28 04:53:07;;;;;;;1.93;1.30;;;14.60;94.40;;;;;;5080775;28;21172;-74
2022/07/28 04:55:33;;;;;;;12.03;1.90;;;14.60;94.40;;;;;;5074883;28;20460;-74
2022/07/28 04:57:59;;;;;;;9.70;1.53;;;14.70;94.60;;;;;;5072363;28;20434;-74
2022/07/28 05:00:25;;;;;;;2.30;1.03;;;14.70;94.90;;;;;;5075224;28;20424;-76
2022/07/28 05:02:50;;;;;;;6.03;1.17;;;14.70;94.90;;;;;;5072809;28;20596;-76
2022/07/28 05:05:16;;;;;;;3.83;1.03;;;14.70;94.60;;;;;;5069662;28;20935;-76
2022/07/28 05:07:42;;;;;;;4.40;1.00;;;14.80;94.80;;;;;;5072895;28;20180;-76
2022/07/28 05:10:10;;;;;;;3.20;1.50;;;14.80;95.00;;;;;;5082805;28;20218;-75
2022/07/28 05:12:36;;;;;;;2.43;0.70;;;14.90;94.00;;;;;;5087086;28;20196;-76
2022/07/28 05:15:01;;;;;;;3.00;0.80;;;15.00;93.60;;;;;;5079587;28;20791;-76
2022/07/28 05:17:27;;;;;;;7.23;1.63;;;15.10;93.70;;;;;;5074456;28;20181;-76
2022/07/28 05:19:53;;;;;;;2.97;0.93;;;15.10;93.20;;;;;;5070423;28;20272;-76
2022/07/28 05:22:18;;;;;;;3.23;1.50;;;15.10;93.00;;;;;;5076253;28;20601;-76
2022/07/28 05:24:44;;;;;;;6.60;1.10;;;15.10;93.00;;;;;;5068024;28;20266;-76
2022/07/28 05:27:13;;;;;;;4.13;0.87;;;15.10;93.20;;;;;;5064034;28;20185;-76
2022/07/28 05:29:40;;;;;;;3.63;1.40;;;15.10;93.10;;;;;;5067615;28;20188;-76
2022/07/28 05:32:07;;;;;;;1.90;0.93;;;15.10;92.80;;;;;;5070372;28;20411;-76
2022/07/28 05:34:33;;;;;;;2.03;1.03;;;15.10;92.90;;;;;;5071133;28;20532;-76
2022/07/28 05:37:01;;;;;;;5.00;1.43;;;15.10;92.90;;;;;;5064947;28;20416;-75
2022/07/28 05:39:33;;;;;;;3.17;1.80;;;15.10;93.00;;;;;;5066409;28;20419;-75
2022/07/28 05:41:59;;;;;;;5.63;1.40;;;15.10;93.10;;;;;;5066478;28;20455;-76
2022/07/28 05:44:25;;;;;;;5.37;1.10;;;15.10;93.20;;;;;;5066394;28;20420;-76
2022/07/28 05:46:50;;;;;;;6.70;1.20;;;15.10;93.20;;;;;;5066157;28;20429;-75
2022/07/28 05:49:16;;;;;;;2.70;1.27;;;15.10;93.00;;;;;;5067914;28;20527;-76
2022/07/28 05:51:42;;;;;;;2.63;0.90;;;15.20;92.60;;;;;;5067862;28;20276;-75
2022/07/28 05:54:08;;;;;;;5.53;1.90;;;15.20;92.60;;;;;;5065644;28;20579;-76
2022/07/28 05:56:33;;;;;;;3.70;1.20;;;15.30;93.00;;;;;;5084010;28;20177;-75
2022/07/28 05:58:59;;;;;;;2.57;1.30;;;15.40;93.00;;;;;;5075952;28;20173;-75
2022/07/28 06:01:24;;;;;;;9.13;1.27;;;15.40;92.80;;;;;;5082669;28;20173;-75
2022/07/28 06:03:51;;;;;;;4.27;1.40;;;15.50;92.90;;;;;;5063293;28;20193;-76
2022/07/28 06:06:18;;;;;;;2.37;1.00;;;15.60;93.20;;;;;;5062375;28;20185;-75
2022/07/28 06:08:46;;;;;;;5.50;1.30;;;15.70;93.10;;;;;;5072015;28;20501;-76
2022/07/28 06:11:15;;;;;;;5.37;1.20;;;15.80;93.10;;;;;;5065097;28;20435;-76
2022/07/28 06:13:41;;;;;;;3.43;1.47;;;15.90;93.60;;;;;;5068443;28;20458;-76
2022/07/28 06:16:07;;;;;;;4.90;1.60;;;16.00;93.00;;;;;;5066335;28;21120;-75
2022/07/28 06:18:33;;;;;;;3.93;1.33;;;16.10;92.80;;;;;;5067423;28;20186;-76
2022/07/28 06:20:58;;;;;;;4.37;1.80;;;16.20;93.10;;;;;;5065771;28;20220;-76
2022/07/28 06:23:24;;;;;;;2.33;1.30;;;16.40;93.00;;;;;;5061990;28;20192;-75
2022/07/28 06:25:50;;;;;;;3.13;1.50;;;16.50;93.00;;;;;;5069715;28;20181;-76
2022/07/28 06:28:17;;;;;;;9.13;2.20;;;16.70;93.00;;;;;;5072976;28;20649;-76
2022/07/28 06:30:44;;;;;;;3.60;1.70;;;16.90;93.70;;;;;;5074513;28;20427;-76
2022/07/28 06:33:09;;;;;;;6.47;1.40;;;17.10;93.30;;;;;;5067796;28;20927;-76
2022/07/28 06:35:35;;;;;;;4.87;1.60;;;17.20;92.80;;;;;;5073165;28;20546;-76
2022/07/28 06:38:01;;;;;;;4.37;2.03;;;17.40;92.90;;;;;;5074505;28;20235;-76
2022/07/28 06:40:26;;;;;;;7.70;2.50;;;17.50;92.60;;;;;;5064207;28;20255;-76
2022/07/28 06:42:52;;;;;;;5.20;2.23;;;17.60;92.70;;;;;;5065063;28;20280;-75
2022/07/28 06:45:18;;;;;;;4.37;2.40;;;17.80;92.80;;;;;;5071318;28;20209;-75
2022/07/28 06:47:44;;;;;;;14.73;2.97;;;17.90;92.50;;;;;;5067031;28;20231;-75
2022/07/28 06:50:10;;;;;;;7.27;2.37;;;18.10;92.00;;;;;;5073560;28;20231;-75
2022/07/28 06:52:37;;;;;;;5.80;2.37;;;18.00;92.50;;;;;;5077012;28;20291;-76
2022/07/28 06:55:06;;;;;;;8.70;2.80;;;18.20;92.10;;;;;;5080336;28;20453;-75
2022/07/28 06:57:32;;;;;;;8.60;2.83;;;18.20;92.30;;;;;;5072857;28;20411;-77
2022/07/28 06:59:59;;;;;;;4.13;2.20;;;18.30;92.40;;;;;;5067675;28;20463;-75
2022/07/28 07:02:25;;;;;;;4.17;1.90;;;18.50;92.30;;;;;;5068284;28;20486;-75
2022/07/28 07:04:51;;;;;;;4.23;2.50;;;18.60;91.70;;;;;;5076632;28;20428;-75
2022/07/28 07:07:17;;;;;;;4.77;2.90;;;18.90;91.60;;;;;;5080330;28;20185;-75
2022/07/28 07:09:43;;;;;;;5.17;2.60;;;19.00;91.50;;;;;;5077759;28;20215;-74
2022/07/28 07:12:08;;;;;;;5.80;2.33;;;19.20;91.30;;;;;;5074629;28;20213;-75
2022/07/28 07:14:34;;;;;;;6.73;2.90;;;19.40;91.00;;;;;;5075622;28;20456;-76
2022/07/28 07:17:00;;;;;;;11.10;3.17;;;19.60;91.00;;;;;;5073365;28;20709;-76
2022/07/28 07:19:25;;;;;;;4.47;2.53;;;19.80;91.30;;;;;;5077674;28;20185;-74
2022/07/28 07:21:51;;;;;;;4.73;2.13;;;20.10;90.50;;;;;;5073683;28;20176;-75
2022/07/28 07:24:17;;;;;;;12.80;2.30;;;20.00;91.20;;;;;;5073391;28;20268;-74
2022/07/28 07:26:42;;;;;;;5.23;3.00;;;20.40;90.30;;;;;;5079201;28;20215;-76
2022/07/28 07:29:08;;;;;;;11.80;2.37;;;20.60;90.10;;;;;;5073132;28;20222;-74
2022/07/28 07:31:35;;;;;;;6.10;3.03;;;20.90;90.50;;;;;;5069832;28;20177;-75
2022/07/28 07:34:02;;;;;;;8.40;3.40;;;21.30;89.40;;;;;;5073580;28;20257;-75
2022/07/28 07:36:28;;;;;;;4.83;3.17;;;21.70;87.60;;;;;;5086881;28;20495;-74
2022/07/28 07:38:56;;;;;;;7.07;2.90;;;21.80;87.60;;;;;;5087641;28;20793;-74
2022/07/28 07:41:22;;;;;;;6.40;3.40;;;22.30;86.40;;;;;;5091479;28;20274;-75
2022/07/28 07:43:48;;;;;;;6.20;2.80;;;22.60;86.00;;;;;;5088943;28;20909;-76
2022/07/28 07:46:15;;;;;;;6.43;3.60;;;24.00;82.50;;;;;;5087753;28;20188;-76
2022/07/28 07:48:41;;;;;;;4.83;2.63;;;25.10;79.50;;;;;;5094871;28;20156;-77
2022/07/28 07:51:07;;;;;;;8.00;2.90;;;26.00;76.30;;;;;;5107999;28;20438;-77
2022/07/28 07:53:32;;;;;;;7.40;3.10;;;25.60;77.90;;;;;;5106712;28;20215;-78
2022/07/28 07:55:58;;;;;;;8.63;3.08;;;25.70;76.70;;;;;;5099177;28;20181;-77
2022/07/28 07:58:24;;;;;;;7.30;2.92;;;27.00;73.50;;;;;;5114614;28;20191;-77
2022/07/28 08:00:50;;;;;;;5.13;2.97;;;27.90;69.80;;;;;;5109724;28;20181;-77
2022/07/28 08:03:16;;;;;;;5.45;2.75;;;27.60;70.00;;;;;;5100228;28;20177;-76
2022/07/28 08:05:42;;;;;;;4.53;2.50;;;27.00;71.90;;;;;;5101156;28;20196;-76
2022/07/28 08:08:08;;;;;;;6.20;3.25;;;27.60;71.00;;;;;;5101021;28;20178;-77
2022/07/28 08:10:35;;;;;;;5.85;2.53;;;27.70;71.90;;;;;;5100870;28;20173;-77
2022/07/28 08:13:03;;;;;;;6.05;3.20;;;28.40;69.10;;;;;;5084761;28;20755;-78
2022/07/28 08:15:29;;;;;;;11.10;4.05;;;29.20;66.00;;;;;;5081521;28;20209;-77
2022/07/28 08:17:55;;;;;;;6.22;3.58;;;28.90;65.90;;;;;;5080410;28;20167;-77
2022/07/28 08:20:21;;;;;;;18.02;2.70;;;28.60;67.50;;;;;;5075607;28;20562;-77
2022/07/28 08:22:51;;;;;;;5.05;2.88;;;28.50;67.50;;;;;;5069670;28;20172;-77
2022/07/28 08:25:18;;;;;;;6.72;2.75;;;27.90;69.70;;;;;;5073458;28;20241;-77
2022/07/28 08:27:44;;;;;;;5.50;3.40;;;28.30;68.80;;;;;;5080917;28;20184;-77
2022/07/28 08:30:11;;;;;;;5.88;2.92;;;28.20;68.60;;;;;;5090735;28;20192;-77
2022/07/28 08:32:37;;;;;;;7.85;2.78;;;28.40;67.90;;;;;;5075350;28;20183;-77
2022/07/28 08:35:04;;;;;;;5.40;2.95;;;28.00;69.80;;;;;;5080534;28;20586;-77
2022/07/28 08:37:29;;;;;;;4.93;3.25;;;28.20;68.70;;;;;;5071822;28;20187;-77
2022/07/28 08:39:55;;;;;;;6.35;2.75;;;28.70;67.30;;;;;;5094651;28;20229;-77
2022/07/28 08:43:11;;;;;;;10.48;3.70;;;28.30;68.60;;;;;;5070548;28;20260;-78
2022/07/28 08:45:39;;;;;;;6.68;3.30;;;29.00;67.10;;;;;;5046304;28;20197;-78
2022/07/28 08:48:06;;;;;;;5.43;3.53;;;28.90;67.20;;;;;;5052178;28;20174;-77
2022/07/28 08:50:32;;;;;;;7.50;3.45;;;28.20;69.70;;;;;;5075074;28;20198;-77
2022/07/28 08:52:58;;;;;;;5.05;2.83;;;28.50;67.80;;;;;;5074808;28;20262;-77
2022/07/28 08:55:26;;;;;;;4.65;2.70;;;28.70;68.00;;;;;;5084694;28;20250;-77
2022/07/28 08:57:55;;;;;;;6.43;3.85;;;28.40;69.40;;;;;;5074807;28;20176;-77
2022/07/28 09:00:21;;;;;;;12.05;3.20;;;27.20;71.50;;;;;;5074331;28;20260;-77
2022/07/28 09:02:49;;;;;;;7.20;2.67;;;27.20;72.60;;;;;;5078105;28;20172;-77
2022/07/28 09:05:15;;;;;;;13.75;3.70;;;27.20;72.60;;;;;;5094113;28;20184;-77
2022/07/28 09:07:41;;;;;;;6.68;3.72;;;27.30;72.20;;;;;;5075063;28;20176;-77
2022/07/28 09:10:10;;;;;;;7.40;3.67;;;27.30;73.40;;;;;;5073164;28;20180;-77
2022/07/28 09:12:38;;;;;;;5.22;3.20;;;27.20;74.10;;;;;;5072496;28;20584;-77
2022/07/28 09:15:06;;;;;;;12.30;4.32;;;27.70;72.00;;;;;;5084730;28;20652;-78
2022/07/28 09:17:33;;;;;;;4.43;3.00;;;28.30;70.80;;;;;;5073491;28;20177;-78
2022/07/28 09:19:59;;;;;;;6.57;3.30;;;28.30;70.50;;;;;;5072608;28;20287;-77
2022/07/28 09:22:25;;;;;;;12.48;3.50;;;27.60;72.10;;;;;;5072648;28;20184;-77
2022/07/28 09:24:52;;;;;;;13.48;4.20;;;28.20;70.80;;;;;;5078363;28;20187;-77
2022/07/28 09:27:18;;;;;;;6.97;3.42;;;28.20;71.30;;;;;;5078959;28;20189;-77
2022/07/28 09:29:46;;;;;;;5.55;3.42;;;28.10;71.10;;;;;;5084758;28;20537;-77
2022/07/28 09:32:14;;;;;;;5.80;3.53;;;28.00;70.90;;;;;;5071551;28;20181;-77
2022/07/28 09:34:47;;;;;;;6.93;3.80;;;28.00;71.10;;;;;;5071983;28;20203;-77
2022/07/28 09:37:24;;;;;;;5.80;3.40;;;28.10;71.20;;;;;;5071585;28;20185;-77
2022/07/28 09:39:51;;;;;;;8.98;3.75;;;28.10;71.20;;;;;;5071615;28;20187;-77
2022/07/28 09:42:18;;;;;;;7.10;3.22;;;28.10;70.80;;;;;;5071231;28;20176;-78
2022/07/28 09:44:45;;;;;;;5.63;3.05;;;28.20;70.30;;;;;;5071366;28;20191;-77
2022/07/28 09:47:29;;;;;;;11.43;3.80;;;27.70;71.80;;;;;;5071626;28;20583;-77
2022/07/28 09:49:55;;;;;;;7.45;3.90;;;27.50;72.00;;;;;;5071444;28;20173;-77
2022/07/28 09:52:37;;;;;;;5.40;3.53;;;27.50;72.00;;;;;;5072073;28;20223;-77
2022/07/28 09:55:05;;;;;;;9.63;3.10;;;27.40;72.60;;;;;;5078647;28;20195;-78
2022/07/28 09:57:33;;;;;;;7.47;4.35;;;27.30;73.50;;;;;;5071979;28;20184;-77
2022/07/28 09:59:58;;;;;;;4.97;2.35;;;27.70;71.80;;;;;;5062959;28;20652;-77
2022/07/28 10:02:26;;;;;;;5.43;3.55;;;27.60;73.50;;;;;;5069677;28;20180;-78
2022/07/28 10:04:52;;;;;;;12.73;4.22;;;28.30;70.60;;;;;;5085579;28;20542;-77
2022/07/28 10:07:18;;;;;;;6.68;3.65;;;27.70;71.80;;;;;;5072738;28;20676;-78
2022/07/28 10:09:58;;;;;;;8.98;4.65;;;27.90;71.60;;;;;;5071887;28;20641;-78
2022/07/28 10:12:29;;;;;;;12.90;3.60;;;28.30;70.10;;;;;;5071995;28;20225;-77
2022/07/28 10:14:58;;;;;;;5.32;2.85;;;28.10;70.30;;;;;;5062936;28;20709;-78
2022/07/28 10:17:28;;;;;;;16.05;3.63;;;28.10;70.00;;;;;;5078522;28;20217;-78
2022/07/28 10:19:58;;;;;;;4.65;3.03;;;27.80;70.90;;;;;;5081938;28;20273;-77
2022/07/28 10:22:32;;;;;;;7.75;3.17;;;27.20;73.50;;;;;;5072122;28;20211;-77
2022/07/28 10:25:00;;;;;;;8.07;4.60;;;27.10;73.00;;;;;;5058943;28;20176;-77
2022/07/28 10:27:27;;;;;;;6.60;3.30;;;27.00;73.00;;;;;;5071770;28;20184;-77
2022/07/28 10:29:59;;;;;;;4.50;2.83;;;26.60;74.90;;;;;;5071598;28;20781;-77
2022/07/28 10:32:28;;;;;;;5.20;2.97;;;26.90;74.20;;;;;;5071751;28;20228;-77
2022/07/28 10:35:00;;;;;;;9.97;3.93;;;26.80;74.70;;;;;;5073519;28;20200;-77
2022/07/28 10:37:27;;;;;;;5.47;3.03;;;26.80;74.30;;;;;;5062543;28;20180;-77
2022/07/28 10:40:06;;;;;;;4.17;2.57;;;26.70;74.70;;;;;;5072196;28;20221;-77
2022/07/28 10:42:33;;;;;;;4.23;2.83;;;26.90;75.10;;;;;;5072056;28;20773;-77
2022/07/28 10:45:01;;;;;;;5.60;3.10;;;27.10;73.80;;;;;;5085131;28;20427;-77
2022/07/28 10:47:27;;;;;;;7.33;2.90;;;27.40;72.70;;;;;;5071686;28;20271;-78
2022/07/28 10:49:53;;;;;;;24.23;4.00;;;27.10;75.20;;;;;;5074768;28;20267;-77
2022/07/28 10:52:20;;;;;;;7.43;2.83;;;27.20;73.50;;;;;;5078634;28;20429;-78
2022/07/28 10:55:00;;;;;;;4.27;2.77;;;27.10;72.50;;;;;;5068299;28;20653;-77
2022/07/28 10:57:29;;;;;;;8.80;3.00;;;27.20;73.60;;;;;;5069599;28;20438;-78
2022/07/28 11:00:07;;;;;;;4.63;2.37;;;27.40;73.30;;;;;;5075392;28;20426;-76
2022/07/28 11:02:44;;;;;;;3.87;2.50;;;27.40;75.20;;;;;;5076995;28;20185;-77
2022/07/28 11:05:41;;;;;;;3.70;2.47;;;27.70;71.50;;;;;;5074917;28;20259;-78
2022/07/28 11:08:15;;;;;;;6.90;2.53;;;27.80;71.20;;;;;;5084464;28;20176;-75
2022/07/28 11:10:47;;;;;;;6.87;3.37;;;27.80;71.40;;;;;;5081657;28;20584;-76
2022/07/28 11:13:34;;;;;;;3.70;2.60;;;27.30;71.60;;;;;;5081733;28;20200;-76
2022/07/28 11:16:20;;;;;;;7.50;2.23;;;26.80;74.70;;;;;;5076461;28;20184;-76
2022/07/28 11:19:01;;;;;;;12.40;2.60;;;26.90;72.50;;;;;;5071412;28;20422;-76
2022/07/28 11:21:27;;;;;;;5.20;2.80;;;27.20;71.50;;;;;;5082714;28;20177;-76
2022/07/28 11:23:55;;;;;;;3.67;2.37;;;27.40;71.70;;;;;;5073787;28;20191;-76
2022/07/28 11:26:23;;;;;;;6.60;2.90;;;27.50;69.90;;;;;;5076067;28;20183;-77
2022/07/28 11:29:07;;;;;;;4.60;2.80;;;27.40;70.40;;;;;;5081591;28;20177;-76
2022/07/28 11:31:47;;;;;;;4.40;2.37;;;27.60;71.20;;;;;;5062041;28;20189;-77
2022/07/28 11:34:17;;;;;;;8.83;3.00;;;27.80;71.30;;;;;;5072349;28;20200;-76
2022/07/28 11:37:08;;;;;;;6.57;2.87;;;28.30;69.80;;;;;;5067327;28;20238;-76
2022/07/28 11:39:36;;;;;;;5.60;2.67;;;28.50;68.70;;;;;;5074555;28;20173;-76
2022/07/28 11:42:24;;;;;;;3.50;2.10;;;28.50;68.30;;;;;;5072118;28;20183;-77
2022/07/28 11:44:49;;;;;;;5.23;2.70;;;28.40;69.00;;;;;;5069786;28;20192;-76
2022/07/28 11:47:20;;;;;;;4.50;2.60;;;28.40;68.70;;;;;;5080017;28;20180;-76
2022/07/28 11:50:15;;;;;;;8.70;3.10;;;28.40;68.20;;;;;;5073556;28;20190;-76
2022/07/28 11:52:55;;;;;;;8.40;2.83;;;28.30;68.80;;;;;;5082311;28;20169;-77
2022/07/28 11:55:21;;;;;;;5.57;3.00;;;28.20;67.70;;;;;;5074530;28;20242;-77
2022/07/28 11:57:47;;;;;;;4.53;2.80;;;28.10;69.00;;;;;;5075843;28;20503;-77
2022/07/28 12:00:21;;;;;;;4.87;2.53;;;28.10;67.90;;;;;;5078358;28;20182;-76
2022/07/28 12:02:48;;;;;;;6.83;2.60;;;28.10;67.50;;;;;;5085751;28;20173;-76
2022/07/28 12:05:16;;;;;;;4.33;2.37;;;28.10;66.90;;;;;;5076703;28;20180;-77
2022/07/28 12:07:43;;;;;;;7.83;2.33;;;28.40;66.90;;;;;;5076039;28;20191;-76
2022/07/28 12:10:30;;;;;;;3.85;2.05;;;28.40;66.30;;;;;;5074802;28;20218;-76
2022/07/28 12:12:59;;;;;;;4.43;2.47;;;28.60;68.40;;;;;;5075704;28;20200;-76
2022/07/28 12:15:25;;;;;;;8.20;2.10;;;28.80;66.30;;;;;;5075343;28;20220;-76
2022/07/28 12:17:51;;;;;;;4.18;1.85;;;29.20;62.50;;;;;;5076510;28;20641;-77
2022/07/28 12:20:18;;;;;;;4.63;2.15;;;28.90;63.70;;;;;;5076712;28;20221;-77
2022/07/28 12:23:05;;;;;;;3.22;1.77;;;28.80;63.30;;;;;;5076681;28;20199;-77
2022/07/28 12:25:40;;;;;;;4.90;2.33;;;28.50;64.30;;;;;;5076230;28;20637;-77
2022/07/28 12:28:32;;;;;;;5.27;1.70;;;28.40;66.20;;;;;;5076365;28;20247;-77
2022/07/28 12:31:12;;;;;;;4.20;2.43;;;28.30;64.30;;;;;;5074981;28;20279;-77
2022/07/28 12:33:37;;;;;;;3.45;1.75;;;28.20;65.60;;;;;;5076529;28;20552;-77
2022/07/28 12:36:04;;;;;;;6.85;2.08;;;28.60;62.30;;;;;;5092866;28;20692;-77
2022/07/28 12:38:30;;;;;;;5.75;2.13;;;28.70;63.60;;;;;;5097754;28;20203;-76
2022/07/28 12:40:56;;;;;;;7.22;2.35;;;29.10;63.00;;;;;;5097598;28;20188;-77
2022/07/28 12:43:25;;;;;;;6.10;2.22;;;29.20;64.60;;;;;;5098325;28;20176;-77
2022/07/28 12:45:51;;;;;;;4.15;2.30;;;29.10;63.60;;;;;;5088441;28;20180;-77
2022/07/28 12:48:20;;;;;;;4.20;2.35;;;29.40;62.60;;;;;;5085467;28;20935;-76
2022/07/28 12:50:47;;;;;;;3.10;1.90;;;29.60;60.00;;;;;;5078989;28;20211;-76
2022/07/28 12:53:14;;;;;;;19.27;2.33;;;29.50;60.40;;;;;;5064427;28;20169;-77
2022/07/28 12:55:42;;;;;;;7.70;2.83;;;29.60;62.10;;;;;;5064283;28;20201;-77